Route Details

Aircraft Information
Group: European Fleet
Types: A30F, B738
Route Data
Distance: 396nm
Duration: 1h 10m
Origin METAR: EDDK 260150Z AUTO 13003KT CAVOK 10/10 Q1017 NOSIG
Dest. METAR: EGFF 260150Z AUTO 11011KT 9999 -RA BKN007 OVC017 12/11 Q1010
Freight Data
(for May 26, 2024)
Load Factor:
57%
Manifested Cargo: 33,506lbs
Financial History
Total Freight: 237,861lbs
Average Load: 0lbs/flt
Fuel Used: 36,848lbs
Avg. Fuel Used: 0lbs/flt
Fuel Expense: $17,539
Avg. Fuel Expense: $0
Avg. Fuel Cost: $0/lbs
Total Gross Income: $551,838
Pilot Pay: $1,135
Total Expenses: $107,608
Total Revenue: $424,325
Average Revenue: $0

Capitol Logistics 566




EDDK
Cologne Bonn Airport
Cologne, DE
EGFF
Cardiff International Airport
Cardiff, GB

Activity Log

Date Flight Route Aircraft Duration
09/11/2023 CPX566 NVO2B NVO DCT SOGRI L608 DENUT L610 KOPUL Q63 CPT DCT B738 1h 21m
04/23/2023 CPX566 NVO2P NVO DCT SOGRI L608 DENUT L610 KOPUL Q63 CPT DCT B738 1h 30m
01/20/2023 CPX566 NVO1Q NVO Y868 SOGRI L608 DENUT L610 LAM L179 CPT CDF1C B738 1h 26m
08/26/2022 CPX566 Not Available B738 1h 34m
07/10/2022 CPX566 NVO1Q NVO SOGRI L608 DENUT L610 KOPUL Q63 CPT CPT1C B738 1h 28m